createdAt,value
2022-08-26T00:01:31.578Z,91975.25
2022-08-26T00:04:19.242Z,91977.72
2022-08-26T00:07:06.890Z,91970.19
2022-08-26T00:09:55.294Z,91977.69
2022-08-26T00:12:42.990Z,91965.75
2022-08-26T00:15:30.589Z,91977.81
2022-08-26T00:18:22.584Z,91978.94
2022-08-26T00:21:10.369Z,91964.63
2022-08-26T00:23:57.970Z,91959.47
2022-08-26T00:26:45.531Z,91953.44
2022-08-26T00:29:33.681Z,91958.31
2022-08-26T00:32:24.993Z,91963.19
2022-08-26T00:35:13.749Z,91968.06
2022-08-26T00:38:01.562Z,91967.88
2022-08-26T00:40:49.413Z,91967.69
2022-08-26T00:43:47.381Z,91965.38
2022-08-26T00:46:36.019Z,91962.28
2022-08-26T00:49:23.673Z,91968.31
2022-08-26T00:52:11.984Z,91961.84
2022-08-26T00:55:00.684Z,91958.44
2022-08-26T00:57:48.296Z,91962.47
2022-08-26T01:00:36.153Z,91968.16
2022-08-26T01:03:23.949Z,91955.81
2022-08-26T01:06:13.216Z,91961.66
2022-08-26T01:09:00.827Z,91962.50
2022-08-26T01:11:48.423Z,91958.50
2022-08-26T01:14:36.745Z,91968.00
2022-08-26T01:17:24.452Z,91972.44
2022-08-26T01:20:12.033Z,91970.50
2022-08-26T01:23:01.651Z,91970.84
2022-08-26T01:25:50.871Z,91973.34
2022-08-26T01:28:38.877Z,91974.03
2022-08-26T01:31:30.335Z,91973.09
2022-08-26T01:34:17.953Z,91969.25
2022-08-26T01:37:07.219Z,91975.38
2022-08-26T01:39:55.440Z,91969.84
2022-08-26T01:42:43.059Z,91959.47
2022-08-26T01:45:30.690Z,91961.47
2022-08-26T01:48:18.310Z,91963.50
2022-08-26T01:51:05.926Z,91965.31
2022-08-26T01:53:54.487Z,91969.09
2022-08-26T01:56:42.334Z,91973.97
2022-08-26T01:59:31.909Z,91976.16
2022-08-26T02:02:19.575Z,91973.34
2022-08-26T02:05:07.154Z,91973.63
2022-08-26T02:07:54.755Z,91970.16
2022-08-26T02:10:42.329Z,91974.34
2022-08-26T02:13:30.331Z,91973.66
2022-08-26T02:16:17.977Z,91969.84
2022-08-26T02:19:05.597Z,91976.78
2022-08-26T02:21:55.960Z,91978.66
2022-08-26T02:24:43.629Z,91976.16
2022-08-26T02:27:32.403Z,91974.34
2022-08-26T02:30:20.371Z,91982.22
2022-08-26T02:33:08.117Z,91976.91
2022-08-26T02:35:55.830Z,91971.63
2022-08-26T02:38:43.419Z,91970.72
2022-08-26T02:41:33.794Z,91969.19
2022-08-26T02:44:21.365Z,91969.06
2022-08-26T02:47:08.993Z,91976.38
2022-08-26T02:49:56.607Z,91967.19
2022-08-26T02:52:44.205Z,91975.31
2022-08-26T02:55:31.789Z,91967.84
2022-08-26T02:58:19.379Z,91967.78
2022-08-26T03:01:07.023Z,91971.44
2022-08-26T03:03:55.091Z,91959.22
2022-08-26T03:06:42.672Z,91965.50
2022-08-26T03:09:34.602Z,91958.50
2022-08-26T03:12:22.185Z,91955.13
2022-08-26T03:15:17.776Z,91963.84
2022-08-26T03:18:05.654Z,91960.78
2022-08-26T03:20:54.774Z,91959.50
2022-08-26T03:23:42.398Z,91954.47
2022-08-26T03:26:30.378Z,91960.84
2022-08-26T03:29:17.962Z,91955.84
2022-08-26T03:32:05.562Z,91958.00
2022-08-26T03:34:53.143Z,91956.13
2022-08-26T03:37:40.737Z,91957.25
2022-08-26T03:40:29.168Z,91958.13
2022-08-26T03:43:16.881Z,91958.44
2022-08-26T03:46:04.474Z,91951.75
2022-08-26T03:48:52.526Z,91944.81
2022-08-26T03:51:40.109Z,91947.00
2022-08-26T03:54:29.826Z,91947.06
2022-08-26T03:57:17.414Z,91937.19
2022-08-26T04:00:06.963Z,91943.84
2022-08-26T04:02:54.560Z,91942.00
2022-08-26T04:05:42.198Z,91946.22
2022-08-26T04:08:29.825Z,91949.44
2022-08-26T04:11:17.409Z,91952.50
2022-08-26T04:14:05.226Z,91951.59
2022-08-26T04:16:52.815Z,91955.13
2022-08-26T04:19:43.005Z,91955.72
2022-08-26T04:22:32.613Z,91950.56
2022-08-26T04:25:20.619Z,91946.47
2022-08-26T04:28:08.274Z,91949.72
2022-08-26T04:30:56.939Z,91948.88
2022-08-26T04:33:44.525Z,91957.63
2022-08-26T04:36:34.135Z,91950.47
2022-08-26T04:39:23.361Z,91950.38
2022-08-26T04:42:12.871Z,91949.38
2022-08-26T04:45:00.455Z,91951.72
2022-08-26T04:47:48.047Z,91945.06
2022-08-26T04:50:35.620Z,91953.19
2022-08-26T04:53:23.489Z,91959.66
2022-08-26T04:56:12.412Z,91952.34
2022-08-26T04:59:00.022Z,91957.44
2022-08-26T05:01:47.619Z,91956.69
2022-08-26T05:04:35.754Z,91959.06
2022-08-26T05:07:25.470Z,91962.16
2022-08-26T05:22:52.123Z,91954.72
2022-08-26T05:25:20.900Z,91962.19
2022-08-26T05:27:48.387Z,91959.22
2022-08-26T05:30:15.836Z,91954.97
2022-08-26T05:32:43.691Z,91951.34
2022-08-26T05:35:11.166Z,91954.25
2022-08-26T05:37:38.597Z,91951.34
2022-08-26T05:40:06.192Z,91950.22
2022-08-26T05:42:33.515Z,91958.69
2022-08-26T05:45:01.405Z,91950.81
2022-08-26T05:47:28.865Z,91952.28
2022-08-26T05:49:56.295Z,91960.97
2022-08-26T05:52:25.867Z,91965.66
2022-08-26T05:54:53.695Z,91963.53
2022-08-26T05:57:21.130Z,91962.78
2022-08-26T05:59:50.652Z,91967.34
2022-08-26T06:02:18.237Z,91965.69
2022-08-26T06:04:46.787Z,91964.22
2022-08-26T06:07:14.252Z,91965.34
2022-08-26T06:09:42.120Z,91967.06
2022-08-26T06:12:09.563Z,91962.56
2022-08-26T06:14:37.030Z,91968.44
2022-08-26T06:17:04.500Z,91963.72
2022-08-26T06:19:34.447Z,91969.19
2022-08-26T06:22:02.262Z,91962.88
2022-08-26T06:24:29.755Z,91970.84
2022-08-26T06:26:57.592Z,91973.28
2022-08-26T06:29:25.058Z,91974.72
2022-08-26T06:31:52.336Z,91977.47
2022-08-26T06:34:19.971Z,91984.94
2022-08-26T06:36:47.531Z,91985.22
2022-08-26T06:39:14.875Z,91984.09
2022-08-26T06:41:43.475Z,91976.84
2022-08-26T06:44:11.028Z,91982.00
2022-08-26T06:46:38.501Z,91980.19
2022-08-26T06:49:05.936Z,91988.59
2022-08-26T06:51:35.465Z,91986.75
2022-08-26T06:54:03.748Z,91989.34
2022-08-26T06:56:31.212Z,91988.16
2022-08-26T06:58:58.671Z,91986.50
2022-08-26T07:01:26.159Z,91985.22
2022-08-26T07:03:54.242Z,91984.19
2022-08-26T07:06:24.325Z,91986.38
2022-08-26T07:08:53.026Z,91988.38
2022-08-26T07:11:20.431Z,91994.94
2022-08-26T07:13:47.938Z,92000.91
2022-08-26T07:16:15.366Z,91999.84
2022-08-26T07:18:44.967Z,92007.03
2022-08-26T07:21:13.167Z,91996.72
2022-08-26T07:23:41.832Z,92001.34
2022-08-26T07:26:09.674Z,91999.53
2022-08-26T07:28:37.151Z,91998.22
2022-08-26T07:31:04.657Z,92005.50
2022-08-26T07:33:34.904Z,92003.91
2022-08-26T07:36:02.369Z,92009.25
2022-08-26T07:38:31.903Z,92006.38
2022-08-26T07:41:01.388Z,92006.63
2022-08-26T07:43:28.853Z,92003.00
2022-08-26T07:45:56.738Z,92004.75
2022-08-26T07:48:24.170Z,92006.31
2022-08-26T07:50:51.642Z,92005.38
2022-08-26T07:53:20.713Z,92006.28
2022-08-26T07:55:48.197Z,92006.88
2022-08-26T07:58:15.637Z,92010.47
2022-08-26T08:00:43.098Z,92006.28
2022-08-26T08:03:12.287Z,92009.44
2022-08-26T08:05:41.716Z,92013.59
2022-08-26T08:08:27.126Z,92016.91
2022-08-26T08:10:55.545Z,92014.53
2022-08-26T08:13:22.966Z,92019.00
2022-08-26T08:15:51.191Z,92014.50
2022-08-26T08:18:20.527Z,92006.78
2022-08-26T08:20:59.482Z,92005.53
2022-08-26T08:23:32.852Z,92008.94
2022-08-26T08:26:00.272Z,92007.00
2022-08-26T08:28:27.714Z,92006.13
2022-08-26T08:30:55.226Z,92004.81
2022-08-26T08:33:22.567Z,92002.53
2022-08-26T08:35:53.012Z,92004.63
2022-08-26T08:38:20.423Z,92002.47
2022-08-26T08:40:49.883Z,91996.72
2022-08-26T08:43:17.159Z,92006.06
2022-08-26T08:45:44.496Z,92007.78
2022-08-26T08:48:14.783Z,92011.38
2022-08-26T08:50:42.223Z,92014.06
2022-08-26T08:53:10.105Z,92004.50
2022-08-26T08:55:37.564Z,92012.69
2022-08-26T08:58:06.301Z,92013.28
2022-08-26T09:00:39.658Z,92015.81
2022-08-26T09:03:07.310Z,92016.16
2022-08-26T09:05:37.542Z,92023.13
2022-08-26T09:08:06.584Z,92011.78
2022-08-26T09:10:34.184Z,92016.84
2022-08-26T09:13:02.633Z,92014.06
2022-08-26T09:15:30.610Z,92011.38
2022-08-26T09:17:58.205Z,92016.63
2022-08-26T09:20:25.666Z,92020.31
2022-08-26T09:22:53.113Z,92023.66
2022-08-26T09:25:20.568Z,92026.78
2022-08-26T09:27:50.483Z,92023.34
2022-08-26T09:30:18.346Z,92027.19
2022-08-26T09:32:56.051Z,92013.41
2022-08-26T09:35:23.898Z,92028.38
2022-08-26T09:40:20.358Z,92024.69
2022-08-26T09:42:48.203Z,92027.38
2022-08-26T09:45:17.126Z,92016.28
2022-08-26T09:47:44.885Z,92023.63
2022-08-26T09:50:13.169Z,92018.22
2022-08-26T09:52:42.777Z,92013.44
2022-08-26T09:55:10.544Z,92015.88
2022-08-26T09:57:37.985Z,92018.22
2022-08-26T10:00:07.471Z,92008.53
2022-08-26T10:02:34.760Z,92016.13
2022-08-26T10:05:09.110Z,92014.13
2022-08-26T10:07:36.839Z,92017.19
2022-08-26T10:10:05.091Z,92013.78
2022-08-26T10:12:32.585Z,92003.00
2022-08-26T10:15:00.057Z,92000.53
2022-08-26T10:17:27.877Z,92000.72
2022-08-26T10:19:58.200Z,91995.78
2022-08-26T10:22:25.667Z,91999.81
2022-08-26T10:24:55.133Z,92003.16
2022-08-26T10:27:23.086Z,92001.91
2022-08-26T10:29:51.313Z,92012.88
2022-08-26T10:32:20.959Z,92001.47
2022-08-26T10:34:48.681Z,92005.50
2022-08-26T10:37:16.756Z,92007.16
2022-08-26T10:39:44.439Z,92005.34
2022-08-26T10:42:13.947Z,92007.81
2022-08-26T10:44:41.375Z,92009.09
2022-08-26T10:47:11.727Z,92005.72
2022-08-26T10:49:39.167Z,92008.56
2022-08-26T10:52:12.372Z,92010.47
2022-08-26T10:54:43.946Z,92008.69
2022-08-26T10:57:11.384Z,92012.53
2022-08-26T10:59:38.832Z,92011.06
2022-08-26T11:02:08.323Z,92007.75
2022-08-26T11:04:37.190Z,92006.19
2022-08-26T11:07:04.909Z,92007.47
2022-08-26T11:09:33.983Z,92002.84
2022-08-26T11:12:06.863Z,92011.78
2022-08-26T11:14:46.068Z,92005.88
2022-08-26T11:17:22.181Z,92009.00
2022-08-26T11:20:00.762Z,92008.06
2022-08-26T11:22:28.713Z,92007.75
2022-08-26T11:24:55.987Z,92010.78
2022-08-26T11:27:23.471Z,92010.19
2022-08-26T11:29:51.728Z,92013.16
2022-08-26T11:32:20.412Z,92008.19
2022-08-26T11:34:50.292Z,92013.28
2022-08-26T11:39:54.029Z,92014.06
2022-08-26T11:42:22.549Z,92017.19
2022-08-26T11:44:50.813Z,92011.16
2022-08-26T11:47:18.274Z,92012.13
2022-08-26T11:49:46.585Z,92014.06
2022-08-26T11:52:13.999Z,92009.09
2022-08-26T11:54:41.475Z,92006.13
2022-08-26T11:57:11.593Z,92000.28
2022-08-26T11:59:39.711Z,92003.44
2022-08-26T12:02:07.544Z,92001.09
2022-08-26T12:04:35.186Z,91997.75
2022-08-26T12:07:04.478Z,92006.88
2022-08-26T12:09:36.140Z,92005.88
2022-08-26T12:12:03.517Z,92001.00
2022-08-26T12:14:31.367Z,92004.88
2022-08-26T12:17:00.483Z,92006.91
2022-08-26T12:19:27.936Z,92006.13
2022-08-26T12:21:55.401Z,92005.44
2022-08-26T12:24:22.885Z,92006.50
2022-08-26T12:26:53.999Z,92007.00
2022-08-26T12:29:26.808Z,91996.84
2022-08-26T12:31:55.152Z,92007.56
2022-08-26T12:34:23.009Z,92005.72
2022-08-26T12:36:51.267Z,92001.84
2022-08-26T12:39:18.670Z,92006.81
2022-08-26T12:41:48.150Z,91998.94
2022-08-26T12:44:15.680Z,92004.78
2022-08-26T12:46:45.666Z,91996.94
2022-08-26T12:49:16.660Z,91993.59
2022-08-26T12:51:44.142Z,91995.13
2022-08-26T12:54:11.580Z,91993.72
2022-08-26T12:56:39.033Z,91982.06
2022-08-26T12:59:06.581Z,91990.25
2022-08-26T13:01:34.229Z,91977.47
2022-08-26T13:04:01.825Z,91980.75
2022-08-26T13:06:29.272Z,91979.03
2022-08-26T13:08:56.755Z,91969.78
2022-08-26T13:11:24.206Z,91975.66
2022-08-26T13:13:51.694Z,91977.31
2022-08-26T13:16:19.164Z,91979.53
2022-08-26T13:18:46.558Z,91972.63
2022-08-26T13:21:14.043Z,91961.91
2022-08-26T13:23:42.634Z,91956.59
2022-08-26T13:26:10.204Z,91971.22
2022-08-26T13:28:37.644Z,91966.81
2022-08-26T13:31:05.151Z,91972.53
2022-08-26T13:33:33.781Z,91961.03
2022-08-26T13:36:01.643Z,91961.00
2022-08-26T13:38:33.267Z,91964.59
2022-08-26T13:41:01.494Z,91961.75
2022-08-26T13:43:28.938Z,91956.97
2022-08-26T13:45:56.240Z,91957.72
2022-08-26T13:48:23.886Z,91960.88
2022-08-26T13:50:51.193Z,91965.31
2022-08-26T13:53:18.755Z,91952.34
2022-08-26T13:55:46.206Z,91941.88
2022-08-26T13:58:13.701Z,91943.69
2022-08-26T14:00:41.190Z,91940.38
2022-08-26T14:03:13.085Z,91953.22
2022-08-26T14:05:40.982Z,91943.78
2022-08-26T14:08:08.515Z,91951.41
2022-08-26T14:10:36.299Z,91948.75
2022-08-26T14:13:03.769Z,91941.41
2022-08-26T14:15:32.025Z,91943.22
2022-08-26T14:17:59.476Z,91941.84
2022-08-26T14:20:27.383Z,91932.34
2022-08-26T14:23:12.956Z,91936.81
2022-08-26T14:25:41.524Z,91929.31
2022-08-26T14:28:08.813Z,91929.16
2022-08-26T14:30:36.444Z,91927.56
2022-08-26T14:33:03.913Z,91929.50
2022-08-26T14:35:31.352Z,91928.44
2022-08-26T14:37:58.832Z,91927.78
2022-08-26T14:40:26.430Z,91926.19
2022-08-26T14:42:54.141Z,91925.75
2022-08-26T14:45:21.568Z,91925.47
2022-08-26T14:47:49.039Z,91920.34
2022-08-26T14:50:16.318Z,91915.59
2022-08-26T14:52:46.042Z,91916.63
2022-08-26T14:55:13.324Z,91909.31
2022-08-26T14:57:40.937Z,91911.41
2022-08-26T15:00:08.244Z,91913.50
2022-08-26T15:02:35.618Z,91914.41
2022-08-26T15:05:03.283Z,91910.06
2022-08-26T15:07:30.774Z,91911.84
2022-08-26T15:09:58.199Z,91913.13
2022-08-26T15:12:25.657Z,91903.22
2022-08-26T15:14:53.141Z,91906.34
2022-08-26T15:17:20.577Z,91907.50
2022-08-26T15:19:50.146Z,91904.69
2022-08-26T15:22:17.559Z,91906.63
2022-08-26T15:24:45.022Z,91909.38
2022-08-26T15:27:12.465Z,91914.41
2022-08-26T15:29:39.928Z,91913.69
2022-08-26T15:32:07.388Z,91921.34
2022-08-26T15:34:34.842Z,91926.84
2022-08-26T15:37:02.286Z,91922.94
2022-08-26T15:39:29.745Z,91917.69
2022-08-26T15:41:57.222Z,91926.66
2022-08-26T15:44:24.651Z,91918.28
2022-08-26T15:46:56.565Z,91919.28
2022-08-26T15:49:25.711Z,91920.00
2022-08-26T15:51:53.254Z,91925.47
2022-08-26T15:54:20.660Z,91928.97
2022-08-26T15:56:48.112Z,91935.06
2022-08-26T15:59:15.539Z,91930.72
2022-08-26T16:01:43.562Z,91930.19
2022-08-26T16:04:10.891Z,91937.94
2022-08-26T16:06:38.338Z,91941.31
2022-08-26T16:09:05.798Z,91941.91
2022-08-26T16:11:33.275Z,91942.50
2022-08-26T16:14:00.724Z,91936.97
2022-08-26T16:16:28.197Z,91939.81
2022-08-26T16:18:55.618Z,91938.94
2022-08-26T16:21:23.190Z,91935.25
2022-08-26T16:23:50.539Z,91940.34
2022-08-26T16:26:17.989Z,91933.97
2022-08-26T16:28:45.478Z,91932.69
2022-08-26T16:31:12.980Z,91926.75
2022-08-26T16:33:40.420Z,91928.28
2022-08-26T16:36:10.001Z,91924.09
2022-08-26T16:38:37.327Z,91930.34
2022-08-26T16:41:04.790Z,91935.22
2022-08-26T16:43:32.265Z,91927.63
2022-08-26T16:45:59.753Z,91924.31
2022-08-26T16:48:27.180Z,91924.53
2022-08-26T16:50:54.613Z,91920.09
2022-08-26T16:53:22.069Z,91926.78
2022-08-26T16:55:49.596Z,91928.44
2022-08-26T16:58:17.087Z,91931.31
2022-08-26T17:00:44.358Z,91923.34
2022-08-26T17:03:11.953Z,91927.97
2022-08-26T17:05:39.282Z,91918.00
2022-08-26T17:08:06.807Z,91921.28
2022-08-26T17:10:34.145Z,91917.53
2022-08-26T17:13:01.756Z,91914.00
2022-08-26T17:15:29.345Z,91913.28
2022-08-26T17:17:56.653Z,91915.31
2022-08-26T17:20:24.111Z,91908.72
2022-08-26T17:22:51.567Z,91914.75
2022-08-26T17:25:19.015Z,91910.66
2022-08-26T17:27:46.621Z,91923.19
2022-08-26T17:30:14.354Z,91916.41
2022-08-26T17:32:41.622Z,91913.22
2022-08-26T17:35:08.908Z,91913.75
2022-08-26T17:37:40.404Z,91916.03
2022-08-26T17:40:07.904Z,91919.63
2022-08-26T17:42:35.225Z,91908.44
2022-08-26T17:45:02.806Z,91913.75
2022-08-26T17:47:30.095Z,91916.28
2022-08-26T17:49:57.702Z,91915.16
2022-08-26T17:52:25.152Z,91911.22
2022-08-26T17:54:52.635Z,91914.94
2022-08-26T17:57:19.929Z,91915.50
2022-08-26T17:59:48.762Z,91915.06
2022-08-26T18:02:16.635Z,91921.66
2022-08-26T18:04:44.113Z,91927.53
2022-08-26T18:07:11.533Z,91918.00
2022-08-26T18:09:39.044Z,91919.41
2022-08-26T18:12:06.454Z,91916.31
2022-08-26T18:14:33.931Z,91919.09
2022-08-26T18:17:01.365Z,91929.13
2022-08-26T18:19:28.811Z,91924.91
2022-08-26T18:21:56.289Z,91929.47
2022-08-26T18:24:23.767Z,91928.41
2022-08-26T18:26:51.208Z,91937.50
2022-08-26T18:29:18.664Z,91936.41
2022-08-26T18:31:46.129Z,91945.47
2022-08-26T18:34:13.573Z,91944.09
2022-08-26T18:36:41.028Z,91940.34
2022-08-26T18:39:08.427Z,91946.69
2022-08-26T18:41:37.989Z,91949.22
2022-08-26T18:44:05.461Z,91952.31
2022-08-26T18:46:32.999Z,91960.53
2022-08-26T18:49:00.385Z,91956.41
2022-08-26T18:51:28.253Z,91959.63
2022-08-26T18:53:55.687Z,91961.97
2022-08-26T18:56:23.156Z,91957.13
2022-08-26T18:58:50.609Z,91951.00
2022-08-26T19:01:18.158Z,91953.34
2022-08-26T19:03:45.511Z,91955.66
2022-08-26T19:06:12.980Z,91952.91
2022-08-26T19:08:42.621Z,91953.91
2022-08-26T19:11:12.400Z,91963.09
2022-08-26T19:13:41.216Z,91959.41
2022-08-26T19:16:08.545Z,91962.50
2022-08-26T19:18:36.020Z,91958.50
2022-08-26T19:21:04.700Z,91958.44
2022-08-26T19:23:32.617Z,91957.84
2022-08-26T19:26:00.117Z,91963.16
2022-08-26T19:28:27.401Z,91964.34
2022-08-26T19:30:54.967Z,91960.50
2022-08-26T19:33:22.406Z,91970.16
2022-08-26T19:35:49.688Z,91967.63
2022-08-26T19:38:17.302Z,91976.63
2022-08-26T19:40:44.791Z,91970.47
2022-08-26T19:43:12.204Z,91975.50
2022-08-26T19:45:39.764Z,91975.34
2022-08-26T19:48:07.184Z,91974.72
2022-08-26T19:50:34.988Z,91971.38
2022-08-26T19:53:02.457Z,91968.06
2022-08-26T19:55:29.970Z,91970.16
2022-08-26T19:57:57.367Z,91970.16
2022-08-26T20:00:24.821Z,91972.06
2022-08-26T20:02:52.308Z,91968.06
2022-08-26T20:05:19.780Z,91967.94
2022-08-26T20:07:47.192Z,91972.59
2022-08-26T20:10:14.672Z,91968.72
2022-08-26T20:12:42.104Z,91968.91
2022-08-26T20:15:09.581Z,91969.88
2022-08-26T20:17:36.849Z,91965.03
2022-08-26T20:20:04.475Z,91971.91
2022-08-26T20:22:31.965Z,91966.78
2022-08-26T20:24:59.386Z,91960.34
2022-08-26T20:27:26.858Z,91961.84
2022-08-26T20:30:05.370Z,91974.38
2022-08-26T20:32:35.586Z,91973.56
2022-08-26T20:35:03.182Z,91976.28
2022-08-26T20:37:30.612Z,91981.38
2022-08-26T20:39:58.104Z,91975.09
2022-08-26T20:42:25.558Z,91978.66
2022-08-26T20:44:54.657Z,91981.50
2022-08-26T20:47:22.492Z,91983.72
2022-08-26T20:49:52.306Z,91975.63
2022-08-26T20:52:20.269Z,91982.91
2022-08-26T20:54:47.738Z,91992.13
2022-08-26T20:57:15.212Z,91979.53
2022-08-26T20:59:42.650Z,91982.75
2022-08-26T21:02:10.164Z,91985.94
2022-08-26T21:04:37.638Z,91982.13
2022-08-26T21:07:05.026Z,91984.34
2022-08-26T21:09:33.711Z,91984.13
2022-08-26T21:12:01.183Z,91981.44
2022-08-26T21:14:29.029Z,91982.81
2022-08-26T21:16:57.435Z,91979.69
2022-08-26T21:19:24.794Z,91984.56
2022-08-26T21:21:52.222Z,91980.97
2022-08-26T21:24:19.733Z,91979.28
2022-08-26T21:26:47.139Z,91981.84
2022-08-26T21:29:14.608Z,91975.84
2022-08-26T21:31:46.022Z,91971.44
2022-08-26T21:34:14.025Z,91968.81
2022-08-26T21:36:41.566Z,91965.97
2022-08-26T21:39:11.682Z,91970.00
2022-08-26T21:41:39.665Z,91962.44
2022-08-26T21:44:07.155Z,91964.13
2022-08-26T21:46:34.571Z,91971.44
2022-08-26T21:49:02.028Z,91962.81
2022-08-26T21:51:29.613Z,91969.59
2022-08-26T21:53:56.943Z,91958.97
2022-08-26T21:56:24.203Z,91957.00
2022-08-26T21:58:52.483Z,91953.16
2022-08-26T22:01:20.180Z,91950.63
2022-08-26T22:03:47.961Z,91955.31
2022-08-26T22:06:15.469Z,91951.47
2022-08-26T22:08:42.928Z,91950.88
2022-08-26T22:11:10.406Z,91958.00
2022-08-26T22:13:37.684Z,91958.06
2022-08-26T22:16:05.326Z,91958.72
2022-08-26T22:18:32.752Z,91960.78
2022-08-26T22:21:00.237Z,91957.38
2022-08-26T22:23:27.685Z,91959.88
2022-08-26T22:25:55.237Z,91961.13
2022-08-26T22:28:22.594Z,91965.16
2022-08-26T22:30:50.093Z,91972.19
2022-08-26T22:33:17.385Z,91972.44
2022-08-26T22:35:44.947Z,91970.59
2022-08-26T22:38:12.463Z,91974.19
2022-08-26T22:40:39.900Z,91967.53
2022-08-26T22:43:07.383Z,91965.47
2022-08-26T22:45:34.819Z,91968.06
2022-08-26T22:48:02.353Z,91964.19
2022-08-26T22:50:29.728Z,91974.25
2022-08-26T22:52:57.151Z,91972.72
2022-08-26T22:55:24.424Z,91973.81
2022-08-26T22:57:52.083Z,91971.91
2022-08-26T23:00:19.537Z,91977.09
2022-08-26T23:02:59.313Z,91979.97
2022-08-26T23:05:26.739Z,91981.13
2022-08-26T23:07:54.228Z,91978.88
2022-08-26T23:10:21.661Z,91976.22
2022-08-26T23:12:49.134Z,91975.16
2022-08-26T23:15:16.571Z,91975.75
2022-08-26T23:17:46.100Z,91961.22
2022-08-26T23:20:13.562Z,91963.22
2022-08-26T23:22:40.835Z,91969.03
2022-08-26T23:25:08.470Z,91970.06
2022-08-26T23:27:37.329Z,91965.28
2022-08-26T23:30:04.997Z,91964.50
2022-08-26T23:32:32.296Z,91966.25
2022-08-26T23:34:59.917Z,91959.91
2022-08-26T23:37:29.820Z,91962.53
2022-08-26T23:39:57.344Z,91955.63
2022-08-26T23:42:24.749Z,91960.28
2022-08-26T23:44:56.304Z,91962.34
2022-08-26T23:47:23.797Z,91954.69
2022-08-26T23:49:51.230Z,91959.31
2022-08-26T23:52:18.670Z,91957.81
2022-08-26T23:54:46.154Z,91961.84
2022-08-26T23:57:13.626Z,91952.63
2022-08-26T23:59:41.045Z,91943.88
